sensor_id;sensor_type;location;lat;lon;timestamp;P1;durP1;ratioP1;P2;durP2;ratioP2
55423;SDS011;41294;42.666;23.350;2022-11-20T00:01:17;5.67;;;4.27;;
55423;SDS011;41294;42.666;23.350;2022-11-20T00:03:45;7.30;;;4.20;;
55423;SDS011;41294;42.666;23.350;2022-11-20T00:06:11;8.13;;;4.80;;
55423;SDS011;41294;42.666;23.350;2022-11-20T00:08:39;9.30;;;5.13;;
55423;SDS011;41294;42.666;23.350;2022-11-20T00:11:06;8.03;;;6.20;;
55423;SDS011;41294;42.666;23.350;2022-11-20T00:13:35;6.97;;;5.87;;
55423;SDS011;41294;42.666;23.350;2022-11-20T00:16:02;7.53;;;5.80;;
55423;SDS011;41294;42.666;23.350;2022-11-20T00:18:28;8.07;;;5.93;;
55423;SDS011;41294;42.666;23.350;2022-11-20T00:20:59;4.60;;;4.03;;
55423;SDS011;41294;42.666;23.350;2022-11-20T00:23:25;9.83;;;6.67;;
55423;SDS011;41294;42.666;23.350;2022-11-20T00:25:51;7.80;;;5.40;;
55423;SDS011;41294;42.666;23.350;2022-11-20T00:28:16;7.10;;;5.03;;
55423;SDS011;41294;42.666;23.350;2022-11-20T00:30:42;5.53;;;3.10;;
55423;SDS011;41294;42.666;23.350;2022-11-20T00:33:07;5.47;;;4.07;;
55423;SDS011;41294;42.666;23.350;2022-11-20T00:35:32;4.50;;;3.40;;
55423;SDS011;41294;42.666;23.350;2022-11-20T00:37:58;4.20;;;3.80;;
55423;SDS011;41294;42.666;23.350;2022-11-20T00:40:23;7.03;;;3.90;;
55423;SDS011;41294;42.666;23.350;2022-11-20T00:42:48;4.57;;;3.40;;
55423;SDS011;41294;42.666;23.350;2022-11-20T00:45:14;7.00;;;4.27;;
55423;SDS011;41294;42.666;23.350;2022-11-20T00:47:39;4.10;;;2.87;;
55423;SDS011;41294;42.666;23.350;2022-11-20T00:50:05;5.60;;;3.40;;
55423;SDS011;41294;42.666;23.350;2022-11-20T00:52:30;6.03;;;2.87;;
55423;SDS011;41294;42.666;23.350;2022-11-20T00:54:55;4.50;;;2.97;;
55423;SDS011;41294;42.666;23.350;2022-11-20T00:57:21;6.53;;;3.00;;
55423;SDS011;41294;42.666;23.350;2022-11-20T00:59:46;3.80;;;2.20;;
55423;SDS011;41294;42.666;23.350;2022-11-20T01:02:12;3.10;;;1.42;;
55423;SDS011;41294;42.666;23.350;2022-11-20T01:04:37;6.13;;;2.73;;
55423;SDS011;41294;42.666;23.350;2022-11-20T01:07:02;3.80;;;2.40;;
55423;SDS011;41294;42.666;23.350;2022-11-20T01:09:28;2.75;;;1.73;;
55423;SDS011;41294;42.666;23.350;2022-11-20T01:11:53;3.53;;;1.90;;
55423;SDS011;41294;42.666;23.350;2022-11-20T01:14:19;3.08;;;1.60;;
55423;SDS011;41294;42.666;23.350;2022-11-20T01:16:45;1.60;;;1.50;;
55423;SDS011;41294;42.666;23.350;2022-11-20T01:19:20;3.42;;;1.40;;
55423;SDS011;41294;42.666;23.350;2022-11-20T01:21:51;2.08;;;1.20;;
55423;SDS011;41294;42.666;23.350;2022-11-20T01:24:18;1.98;;;1.88;;
55423;SDS011;41294;42.666;23.350;2022-11-20T01:26:47;2.53;;;1.70;;
55423;SDS011;41294;42.666;23.350;2022-11-20T01:29:15;2.30;;;1.67;;
55423;SDS011;41294;42.666;23.350;2022-11-20T01:31:42;1.70;;;1.60;;
55423;SDS011;41294;42.666;23.350;2022-11-20T01:34:12;1.95;;;1.60;;
55423;SDS011;41294;42.666;23.350;2022-11-20T01:36:39;2.15;;;1.50;;
55423;SDS011;41294;42.666;23.350;2022-11-20T01:39:07;3.45;;;1.83;;
55423;SDS011;41294;42.666;23.350;2022-11-20T01:41:37;2.60;;;1.90;;
55423;SDS011;41294;42.666;23.350;2022-11-20T01:44:22;2.25;;;1.77;;
55423;SDS011;41294;42.666;23.350;2022-11-20T01:47:08;2.88;;;1.60;;
55423;SDS011;41294;42.666;23.350;2022-11-20T01:49:45;1.50;;;1.40;;
55423;SDS011;41294;42.666;23.350;2022-11-20T01:52:16;3.00;;;1.45;;
55423;SDS011;41294;42.666;23.350;2022-11-20T01:54:46;2.75;;;1.40;;
55423;SDS011;41294;42.666;23.350;2022-11-20T01:57:18;1.92;;;1.40;;
55423;SDS011;41294;42.666;23.350;2022-11-20T01:59:48;2.45;;;1.95;;
55423;SDS011;41294;42.666;23.350;2022-11-20T02:02:20;6.03;;;1.92;;
55423;SDS011;41294;42.666;23.350;2022-11-20T02:04:46;3.38;;;2.08;;
55423;SDS011;41294;42.666;23.350;2022-11-20T02:07:12;2.38;;;1.70;;
55423;SDS011;41294;42.666;23.350;2022-11-20T02:09:39;2.30;;;1.63;;
55423;SDS011;41294;42.666;23.350;2022-11-20T02:12:04;1.90;;;1.80;;
55423;SDS011;41294;42.666;23.350;2022-11-20T02:14:30;4.90;;;2.40;;
55423;SDS011;41294;42.666;23.350;2022-11-20T02:16:56;2.67;;;2.28;;
55423;SDS011;41294;42.666;23.350;2022-11-20T02:19:29;1.95;;;1.65;;
55423;SDS011;41294;42.666;23.350;2022-11-20T02:22:07;4.22;;;2.42;;
55423;SDS011;41294;42.666;23.350;2022-11-20T02:24:39;1.98;;;1.50;;
55423;SDS011;41294;42.666;23.350;2022-11-20T02:27:09;1.65;;;1.30;;
55423;SDS011;41294;42.666;23.350;2022-11-20T02:32:26;1.25;;;1.15;;
55423;SDS011;41294;42.666;23.350;2022-11-20T02:34:52;2.10;;;1.60;;
55423;SDS011;41294;42.666;23.350;2022-11-20T02:37:18;1.75;;;1.65;;
55423;SDS011;41294;42.666;23.350;2022-11-20T02:39:48;1.67;;;0.93;;
55423;SDS011;41294;42.666;23.350;2022-11-20T02:42:16;1.77;;;1.20;;
55423;SDS011;41294;42.666;23.350;2022-11-20T02:44:42;1.58;;;1.20;;
55423;SDS011;41294;42.666;23.350;2022-11-20T02:47:07;2.10;;;1.35;;
55423;SDS011;41294;42.666;23.350;2022-11-20T02:49:33;2.60;;;1.02;;
55423;SDS011;41294;42.666;23.350;2022-11-20T02:51:58;1.20;;;1.10;;
55423;SDS011;41294;42.666;23.350;2022-11-20T02:54:24;2.60;;;1.05;;
55423;SDS011;41294;42.666;23.350;2022-11-20T02:56:50;1.20;;;1.10;;
55423;SDS011;41294;42.666;23.350;2022-11-20T02:59:15;2.42;;;1.58;;
55423;SDS011;41294;42.666;23.350;2022-11-20T03:01:41;3.10;;;1.30;;
55423;SDS011;41294;42.666;23.350;2022-11-20T03:04:06;1.08;;;1.08;;
55423;SDS011;41294;42.666;23.350;2022-11-20T03:06:31;2.22;;;1.20;;
55423;SDS011;41294;42.666;23.350;2022-11-20T03:08:57;2.05;;;1.20;;
55423;SDS011;41294;42.666;23.350;2022-11-20T03:11:22;1.65;;;1.20;;
55423;SDS011;41294;42.666;23.350;2022-11-20T03:13:48;1.23;;;1.20;;
55423;SDS011;41294;42.666;23.350;2022-11-20T03:16:17;3.60;;;1.20;;
55423;SDS011;41294;42.666;23.350;2022-11-20T03:18:45;4.45;;;1.20;;
55423;SDS011;41294;42.666;23.350;2022-11-20T03:21:11;2.85;;;1.20;;
55423;SDS011;41294;42.666;23.350;2022-11-20T03:23:38;1.45;;;1.20;;
55423;SDS011;41294;42.666;23.350;2022-11-20T03:26:11;1.85;;;1.17;;
55423;SDS011;41294;42.666;23.350;2022-11-20T03:28:38;4.15;;;1.10;;
55423;SDS011;41294;42.666;23.350;2022-11-20T03:31:11;2.03;;;1.10;;
55423;SDS011;41294;42.666;23.350;2022-11-20T03:33:38;2.38;;;1.40;;
55423;SDS011;41294;42.666;23.350;2022-11-20T03:36:06;1.23;;;1.10;;
55423;SDS011;41294;42.666;23.350;2022-11-20T03:38:37;2.72;;;1.25;;
55423;SDS011;41294;42.666;23.350;2022-11-20T03:41:13;1.00;;;1.00;;
55423;SDS011;41294;42.666;23.350;2022-11-20T03:43:40;1.48;;;1.20;;
55423;SDS011;41294;42.666;23.350;2022-11-20T03:46:06;3.45;;;1.25;;
55423;SDS011;41294;42.666;23.350;2022-11-20T03:48:32;1.10;;;1.00;;
55423;SDS011;41294;42.666;23.350;2022-11-20T03:53:32;3.70;;;1.15;;
55423;SDS011;41294;42.666;23.350;2022-11-20T03:55:58;1.08;;;0.93;;
55423;SDS011;41294;42.666;23.350;2022-11-20T03:58:23;2.75;;;1.20;;
55423;SDS011;41294;42.666;23.350;2022-11-20T04:00:49;1.77;;;1.30;;
55423;SDS011;41294;42.666;23.350;2022-11-20T04:03:14;2.63;;;1.30;;
55423;SDS011;41294;42.666;23.350;2022-11-20T04:05:39;1.70;;;1.10;;
55423;SDS011;41294;42.666;23.350;2022-11-20T04:08:05;1.25;;;1.15;;
55423;SDS011;41294;42.666;23.350;2022-11-20T04:10:30;2.80;;;1.33;;
55423;SDS011;41294;42.666;23.350;2022-11-20T04:12:55;2.15;;;1.20;;
55423;SDS011;41294;42.666;23.350;2022-11-20T04:15:22;2.03;;;1.38;;
55423;SDS011;41294;42.666;23.350;2022-11-20T04:17:47;1.83;;;1.20;;
55423;SDS011;41294;42.666;23.350;2022-11-20T04:20:13;2.83;;;1.20;;
55423;SDS011;41294;42.666;23.350;2022-11-20T04:22:38;4.75;;;1.27;;
55423;SDS011;41294;42.666;23.350;2022-11-20T04:25:04;2.13;;;1.10;;
55423;SDS011;41294;42.666;23.350;2022-11-20T04:27:30;2.75;;;1.15;;
55423;SDS011;41294;42.666;23.350;2022-11-20T04:29:55;0.90;;;0.90;;
55423;SDS011;41294;42.666;23.350;2022-11-20T04:32:21;0.95;;;0.93;;
55423;SDS011;41294;42.666;23.350;2022-11-20T04:34:46;2.00;;;0.80;;
55423;SDS011;41294;42.666;23.350;2022-11-20T04:37:11;3.17;;;1.35;;
55423;SDS011;41294;42.666;23.350;2022-11-20T04:39:37;1.55;;;1.10;;
55423;SDS011;41294;42.666;23.350;2022-11-20T04:42:02;1.98;;;1.10;;
55423;SDS011;41294;42.666;23.350;2022-11-20T04:44:46;3.10;;;1.52;;
55423;SDS011;41294;42.666;23.350;2022-11-20T04:47:12;1.35;;;1.10;;
55423;SDS011;41294;42.666;23.350;2022-11-20T04:49:37;2.47;;;1.60;;
55423;SDS011;41294;42.666;23.350;2022-11-20T04:52:02;1.45;;;1.33;;
55423;SDS011;41294;42.666;23.350;2022-11-20T04:54:28;3.03;;;1.00;;
55423;SDS011;41294;42.666;23.350;2022-11-20T04:56:53;1.42;;;1.33;;
55423;SDS011;41294;42.666;23.350;2022-11-20T04:59:19;1.80;;;1.10;;
55423;SDS011;41294;42.666;23.350;2022-11-20T05:01:44;2.42;;;1.17;;
55423;SDS011;41294;42.666;23.350;2022-11-20T05:04:09;2.63;;;1.10;;
55423;SDS011;41294;42.666;23.350;2022-11-20T05:06:35;2.35;;;1.30;;
55423;SDS011;41294;42.666;23.350;2022-11-20T05:09:01;1.10;;;1.00;;
55423;SDS011;41294;42.666;23.350;2022-11-20T05:11:27;3.95;;;1.05;;
55423;SDS011;41294;42.666;23.350;2022-11-20T05:13:54;1.20;;;1.10;;
55423;SDS011;41294;42.666;23.350;2022-11-20T05:16:22;2.50;;;1.20;;
55423;SDS011;41294;42.666;23.350;2022-11-20T05:18:49;1.38;;;1.00;;
55423;SDS011;41294;42.666;23.350;2022-11-20T05:21:15;0.90;;;0.90;;
55423;SDS011;41294;42.666;23.350;2022-11-20T05:23:42;1.33;;;1.10;;
55423;SDS011;41294;42.666;23.350;2022-11-20T05:26:11;1.60;;;0.90;;
55423;SDS011;41294;42.666;23.350;2022-11-20T05:28:38;1.90;;;1.02;;
55423;SDS011;41294;42.666;23.350;2022-11-20T05:31:04;1.63;;;1.20;;
55423;SDS011;41294;42.666;23.350;2022-11-20T05:33:34;2.00;;;1.10;;
55423;SDS011;41294;42.666;23.350;2022-11-20T05:36:00;2.25;;;1.20;;
55423;SDS011;41294;42.666;23.350;2022-11-20T05:38:27;1.30;;;0.93;;
55423;SDS011;41294;42.666;23.350;2022-11-20T05:40:52;2.95;;;1.05;;
55423;SDS011;41294;42.666;23.350;2022-11-20T05:43:17;1.95;;;1.50;;
55423;SDS011;41294;42.666;23.350;2022-11-20T05:45:50;1.92;;;1.50;;
55423;SDS011;41294;42.666;23.350;2022-11-20T05:48:17;2.20;;;1.27;;
55423;SDS011;41294;42.666;23.350;2022-11-20T05:50:42;6.55;;;1.48;;
55423;SDS011;41294;42.666;23.350;2022-11-20T05:53:07;1.87;;;1.53;;
55423;SDS011;41294;42.666;23.350;2022-11-20T05:55:33;4.72;;;1.17;;
55423;SDS011;41294;42.666;23.350;2022-11-20T05:57:58;2.17;;;1.43;;
55423;SDS011;41294;42.666;23.350;2022-11-20T06:00:23;2.60;;;1.30;;
55423;SDS011;41294;42.666;23.350;2022-11-20T06:02:49;3.80;;;1.30;;
55423;SDS011;41294;42.666;23.350;2022-11-20T06:05:14;1.60;;;1.30;;
55423;SDS011;41294;42.666;23.350;2022-11-20T06:07:39;9.70;;;1.80;;
55423;SDS011;41294;42.666;23.350;2022-11-20T06:10:05;4.33;;;1.47;;
55423;SDS011;41294;42.666;23.350;2022-11-20T06:12:31;1.90;;;1.50;;
55423;SDS011;41294;42.666;23.350;2022-11-20T06:14:57;2.53;;;1.60;;
55423;SDS011;41294;42.666;23.350;2022-11-20T06:17:23;5.20;;;1.70;;
55423;SDS011;41294;42.666;23.350;2022-11-20T06:19:48;2.35;;;1.30;;
55423;SDS011;41294;42.666;23.350;2022-11-20T06:22:13;6.53;;;1.65;;
55423;SDS011;41294;42.666;23.350;2022-11-20T06:24:39;2.65;;;1.90;;
55423;SDS011;41294;42.666;23.350;2022-11-20T06:27:04;3.08;;;1.73;;
55423;SDS011;41294;42.666;23.350;2022-11-20T06:29:29;1.43;;;1.33;;
55423;SDS011;41294;42.666;23.350;2022-11-20T06:31:55;1.97;;;1.30;;
55423;SDS011;41294;42.666;23.350;2022-11-20T06:34:20;4.50;;;1.50;;
55423;SDS011;41294;42.666;23.350;2022-11-20T06:36:46;3.33;;;1.33;;
55423;SDS011;41294;42.666;23.350;2022-11-20T06:39:11;3.03;;;1.55;;
55423;SDS011;41294;42.666;23.350;2022-11-20T06:41:36;4.05;;;1.52;;
55423;SDS011;41294;42.666;23.350;2022-11-20T06:44:03;5.17;;;2.17;;
55423;SDS011;41294;42.666;23.350;2022-11-20T06:46:48;4.00;;;1.60;;
55423;SDS011;41294;42.666;23.350;2022-11-20T06:49:13;2.50;;;1.67;;
55423;SDS011;41294;42.666;23.350;2022-11-20T06:51:38;5.97;;;1.80;;
55423;SDS011;41294;42.666;23.350;2022-11-20T06:54:04;3.65;;;1.60;;
55423;SDS011;41294;42.666;23.350;2022-11-20T06:56:29;3.75;;;2.30;;
55423;SDS011;41294;42.666;23.350;2022-11-20T06:58:55;3.30;;;1.70;;
55423;SDS011;41294;42.666;23.350;2022-11-20T07:01:20;1.83;;;1.40;;
55423;SDS011;41294;42.666;23.350;2022-11-20T07:03:48;4.50;;;1.47;;
55423;SDS011;41294;42.666;23.350;2022-11-20T07:06:14;3.05;;;1.40;;
55423;SDS011;41294;42.666;23.350;2022-11-20T07:08:40;2.60;;;1.60;;
55423;SDS011;41294;42.666;23.350;2022-11-20T07:11:06;2.33;;;1.40;;
55423;SDS011;41294;42.666;23.350;2022-11-20T07:13:32;1.37;;;1.23;;
55423;SDS011;41294;42.666;23.350;2022-11-20T07:16:02;2.90;;;1.48;;
55423;SDS011;41294;42.666;23.350;2022-11-20T07:18:29;3.63;;;1.67;;
55423;SDS011;41294;42.666;23.350;2022-11-20T07:20:54;2.00;;;1.50;;
55423;SDS011;41294;42.666;23.350;2022-11-20T07:23:20;8.15;;;1.85;;
55423;SDS011;41294;42.666;23.350;2022-11-20T07:25:45;2.55;;;1.40;;
55423;SDS011;41294;42.666;23.350;2022-11-20T07:28:10;2.90;;;1.77;;
55423;SDS011;41294;42.666;23.350;2022-11-20T07:30:36;4.03;;;1.58;;
55423;SDS011;41294;42.666;23.350;2022-11-20T07:33:02;2.63;;;1.40;;
55423;SDS011;41294;42.666;23.350;2022-11-20T07:35:28;4.25;;;1.33;;
55423;SDS011;41294;42.666;23.350;2022-11-20T07:37:53;2.80;;;1.65;;
55423;SDS011;41294;42.666;23.350;2022-11-20T07:40:20;2.03;;;1.35;;
55423;SDS011;41294;42.666;23.350;2022-11-20T07:42:48;3.33;;;1.50;;
55423;SDS011;41294;42.666;23.350;2022-11-20T07:45:15;2.40;;;1.38;;
55423;SDS011;41294;42.666;23.350;2022-11-20T07:47:40;1.42;;;1.30;;
55423;SDS011;41294;42.666;23.350;2022-11-20T07:50:06;2.85;;;1.98;;
55423;SDS011;41294;42.666;23.350;2022-11-20T07:52:32;5.45;;;1.77;;
55423;SDS011;41294;42.666;23.350;2022-11-20T07:54:57;4.82;;;1.50;;
55423;SDS011;41294;42.666;23.350;2022-11-20T07:57:23;5.47;;;1.80;;
55423;SDS011;41294;42.666;23.350;2022-11-20T07:59:48;2.60;;;1.80;;
55423;SDS011;41294;42.666;23.350;2022-11-20T08:02:14;4.38;;;2.20;;
55423;SDS011;41294;42.666;23.350;2022-11-20T08:04:39;3.85;;;1.70;;
55423;SDS011;41294;42.666;23.350;2022-11-20T08:07:04;2.38;;;1.70;;
55423;SDS011;41294;42.666;23.350;2022-11-20T08:09:30;4.05;;;2.63;;
55423;SDS011;41294;42.666;23.350;2022-11-20T08:11:55;2.55;;;1.80;;
55423;SDS011;41294;42.666;23.350;2022-11-20T08:14:40;5.22;;;1.60;;
55423;SDS011;41294;42.666;23.350;2022-11-20T08:17:06;2.35;;;1.73;;
55423;SDS011;41294;42.666;23.350;2022-11-20T08:19:31;2.63;;;1.50;;
55423;SDS011;41294;42.666;23.350;2022-11-20T08:21:56;4.85;;;1.60;;
55423;SDS011;41294;42.666;23.350;2022-11-20T08:24:22;2.95;;;1.42;;
55423;SDS011;41294;42.666;23.350;2022-11-20T08:26:47;3.38;;;1.80;;
55423;SDS011;41294;42.666;23.350;2022-11-20T08:29:12;2.15;;;1.65;;
55423;SDS011;41294;42.666;23.350;2022-11-20T08:31:38;6.15;;;1.90;;
55423;SDS011;41294;42.666;23.350;2022-11-20T08:34:03;4.00;;;1.48;;
55423;SDS011;41294;42.666;23.350;2022-11-20T08:36:32;2.55;;;1.58;;
55423;SDS011;41294;42.666;23.350;2022-11-20T08:38:58;4.20;;;1.58;;
55423;SDS011;41294;42.666;23.350;2022-11-20T08:41:23;4.70;;;1.60;;
55423;SDS011;41294;42.666;23.350;2022-11-20T08:43:55;6.15;;;1.85;;
55423;SDS011;41294;42.666;23.350;2022-11-20T08:46:23;5.00;;;2.38;;
55423;SDS011;41294;42.666;23.350;2022-11-20T08:48:52;4.97;;;2.20;;
55423;SDS011;41294;42.666;23.350;2022-11-20T08:51:18;7.43;;;3.03;;
55423;SDS011;41294;42.666;23.350;2022-11-20T08:53:44;6.15;;;2.38;;
55423;SDS011;41294;42.666;23.350;2022-11-20T08:56:10;7.63;;;3.10;;
55423;SDS011;41294;42.666;23.350;2022-11-20T08:58:36;4.45;;;2.05;;
55423;SDS011;41294;42.666;23.350;2022-11-20T09:01:02;5.38;;;1.65;;
55423;SDS011;41294;42.666;23.350;2022-11-20T09:03:28;9.75;;;2.20;;
55423;SDS011;41294;42.666;23.350;2022-11-20T09:05:57;6.65;;;2.38;;
55423;SDS011;41294;42.666;23.350;2022-11-20T09:08:24;27.15;;;17.50;;
55423;SDS011;41294;42.666;23.350;2022-11-20T09:10:54;27.55;;;18.88;;
55423;SDS011;41294;42.666;23.350;2022-11-20T09:13:21;7.85;;;2.63;;
55423;SDS011;41294;42.666;23.350;2022-11-20T09:15:52;3.53;;;2.10;;
55423;SDS011;41294;42.666;23.350;2022-11-20T09:18:18;5.03;;;2.33;;
55423;SDS011;41294;42.666;23.350;2022-11-20T09:20:43;4.78;;;2.38;;
55423;SDS011;41294;42.666;23.350;2022-11-20T09:23:09;4.78;;;2.10;;
55423;SDS011;41294;42.666;23.350;2022-11-20T09:25:34;2.97;;;1.90;;
55423;SDS011;41294;42.666;23.350;2022-11-20T09:28:00;1.52;;;1.42;;
55423;SDS011;41294;42.666;23.350;2022-11-20T09:30:25;1.30;;;1.20;;
55423;SDS011;41294;42.666;23.350;2022-11-20T09:32:51;1.05;;;1.05;;
55423;SDS011;41294;42.666;23.350;2022-11-20T09:35:17;1.23;;;1.17;;
55423;SDS011;41294;42.666;23.350;2022-11-20T09:37:43;1.55;;;1.20;;
55423;SDS011;41294;42.666;23.350;2022-11-20T09:40:22;1.53;;;1.30;;
55423;SDS011;41294;42.666;23.350;2022-11-20T09:51:11;2.70;;;1.30;;
55423;SDS011;41294;42.666;23.350;2022-11-20T09:56:24;3.00;;;1.60;;
55423;SDS011;41294;42.666;23.350;2022-11-20T09:58:51;2.75;;;1.65;;
55423;SDS011;41294;42.666;23.350;2022-11-20T10:01:20;1.98;;;1.73;;
55423;SDS011;41294;42.666;23.350;2022-11-20T10:03:50;2.13;;;1.85;;
55423;SDS011;41294;42.666;23.350;2022-11-20T10:06:17;2.97;;;2.00;;
55423;SDS011;41294;42.666;23.350;2022-11-20T10:20:46;2.90;;;2.22;;
55423;SDS011;41294;42.666;23.350;2022-11-20T10:26:05;6.47;;;3.45;;
55423;SDS011;41294;42.666;23.350;2022-11-20T10:28:55;6.93;;;2.83;;
55423;SDS011;41294;42.666;23.350;2022-11-20T10:31:28;5.72;;;2.70;;
55423;SDS011;41294;42.666;23.350;2022-11-20T10:33:58;6.63;;;3.33;;
55423;SDS011;41294;42.666;23.350;2022-11-20T10:36:33;5.47;;;2.60;;
55423;SDS011;41294;42.666;23.350;2022-11-20T10:39:14;5.40;;;2.80;;
55423;SDS011;41294;42.666;23.350;2022-11-20T10:41:41;7.80;;;2.97;;
55423;SDS011;41294;42.666;23.350;2022-11-20T10:44:26;7.63;;;3.22;;
55423;SDS011;41294;42.666;23.350;2022-11-20T10:47:15;3.77;;;2.50;;
55423;SDS011;41294;42.666;23.350;2022-11-20T10:49:46;4.13;;;2.70;;
55423;SDS011;41294;42.666;23.350;2022-11-20T10:57:35;4.68;;;2.78;;
55423;SDS011;41294;42.666;23.350;2022-11-20T11:00:14;10.50;;;2.97;;
55423;SDS011;41294;42.666;23.350;2022-11-20T11:02:52;5.45;;;2.67;;
55423;SDS011;41294;42.666;23.350;2022-11-20T11:07:45;6.60;;;3.10;;
55423;SDS011;41294;42.666;23.350;2022-11-20T11:10:21;6.90;;;3.40;;
55423;SDS011;41294;42.666;23.350;2022-11-20T11:12:48;4.10;;;3.20;;
55423;SDS011;41294;42.666;23.350;2022-11-20T11:15:59;12.07;;;3.92;;
55423;SDS011;41294;42.666;23.350;2022-11-20T11:18:04;5.20;;;3.45;;
55423;SDS011;41294;42.666;23.350;2022-11-20T11:20:29;2.97;;;1.53;;
55423;SDS011;41294;42.666;23.350;2022-11-20T11:22:57;3.50;;;1.70;;
55423;SDS011;41294;42.666;23.350;2022-11-20T11:27:57;2.97;;;2.07;;
55423;SDS011;41294;42.666;23.350;2022-11-20T11:30:25;1.93;;;1.20;;
55423;SDS011;41294;42.666;23.350;2022-11-20T11:33:01;1.10;;;1.10;;
55423;SDS011;41294;42.666;23.350;2022-11-20T11:35:28;1.30;;;1.20;;
55423;SDS011;41294;42.666;23.350;2022-11-20T11:38:06;3.83;;;1.20;;
55423;SDS011;41294;42.666;23.350;2022-11-20T11:40:39;1.80;;;1.00;;
55423;SDS011;41294;42.666;23.350;2022-11-20T11:43:06;1.33;;;1.20;;
55423;SDS011;41294;42.666;23.350;2022-11-20T11:46:02;1.80;;;1.10;;
55423;SDS011;41294;42.666;23.350;2022-11-20T11:48:33;1.80;;;0.93;;
55423;SDS011;41294;42.666;23.350;2022-11-20T11:50:59;2.37;;;1.17;;
55423;SDS011;41294;42.666;23.350;2022-11-20T11:53:25;2.37;;;1.43;;
55423;SDS011;41294;42.666;23.350;2022-11-20T11:56:26;2.00;;;1.30;;
55423;SDS011;41294;42.666;23.350;2022-11-20T11:58:49;6.13;;;1.20;;
55423;SDS011;41294;42.666;23.350;2022-11-20T12:07:22;3.07;;;1.40;;
55423;SDS011;41294;42.666;23.350;2022-11-20T12:10:02;1.97;;;1.27;;
55423;SDS011;41294;42.666;23.350;2022-11-20T12:12:33;2.30;;;1.60;;
55423;SDS011;41294;42.666;23.350;2022-11-20T12:15:09;3.73;;;1.87;;
55423;SDS011;41294;42.666;23.350;2022-11-20T12:17:37;2.23;;;1.40;;
55423;SDS011;41294;42.666;23.350;2022-11-20T12:20:05;2.10;;;1.10;;
55423;SDS011;41294;42.666;23.350;2022-11-20T12:25:11;1.63;;;1.23;;
55423;SDS011;41294;42.666;23.350;2022-11-20T12:27:52;2.30;;;1.10;;
55423;SDS011;41294;42.666;23.350;2022-11-20T12:30:23;2.50;;;1.17;;
55423;SDS011;41294;42.666;23.350;2022-11-20T12:35:30;1.70;;;1.60;;
55423;SDS011;41294;42.666;23.350;2022-11-20T12:50:14;5.50;;;1.20;;
55423;SDS011;41294;42.666;23.350;2022-11-20T13:00:29;3.10;;;1.17;;
55423;SDS011;41294;42.666;23.350;2022-11-20T13:08:02;4.00;;;2.17;;
55423;SDS011;41294;42.666;23.350;2022-11-20T13:10:42;4.00;;;2.00;;
55423;SDS011;41294;42.666;23.350;2022-11-20T13:16:02;5.77;;;2.37;;
55423;SDS011;41294;42.666;23.350;2022-11-20T13:18:39;5.60;;;2.03;;
55423;SDS011;41294;42.666;23.350;2022-11-20T13:21:14;4.77;;;2.00;;
55423;SDS011;41294;42.666;23.350;2022-11-20T13:23:41;3.03;;;2.10;;
55423;SDS011;41294;42.666;23.350;2022-11-20T13:26:22;2.37;;;1.90;;
55423;SDS011;41294;42.666;23.350;2022-11-20T13:29:08;3.77;;;1.70;;
55423;SDS011;41294;42.666;23.350;2022-11-20T13:31:47;5.07;;;2.03;;
55423;SDS011;41294;42.666;23.350;2022-11-20T13:34:21;3.07;;;2.17;;
55423;SDS011;41294;42.666;23.350;2022-11-20T13:36:50;5.87;;;2.07;;
55423;SDS011;41294;42.666;23.350;2022-11-20T13:41:55;4.37;;;2.13;;
55423;SDS011;41294;42.666;23.350;2022-11-20T13:47:23;5.37;;;2.30;;
55423;SDS011;41294;42.666;23.350;2022-11-20T13:49:50;5.17;;;2.60;;
55423;SDS011;41294;42.666;23.350;2022-11-20T13:52:28;7.97;;;2.60;;
55423;SDS011;41294;42.666;23.350;2022-11-20T13:55:06;2.60;;;2.00;;
55423;SDS011;41294;42.666;23.350;2022-11-20T13:57:47;3.53;;;1.90;;
55423;SDS011;41294;42.666;23.350;2022-11-20T14:03:22;4.83;;;2.47;;
55423;SDS011;41294;42.666;23.350;2022-11-20T14:05:54;6.43;;;2.03;;
55423;SDS011;41294;42.666;23.350;2022-11-20T14:11:19;5.20;;;2.43;;
55423;SDS011;41294;42.666;23.350;2022-11-20T14:16:23;4.27;;;2.10;;
55423;SDS011;41294;42.666;23.350;2022-11-20T14:18:49;2.93;;;2.47;;
55423;SDS011;41294;42.666;23.350;2022-11-20T14:21:28;5.03;;;2.87;;
55423;SDS011;41294;42.666;23.350;2022-11-20T14:24:07;5.87;;;3.10;;
55423;SDS011;41294;42.666;23.350;2022-11-20T14:26:36;3.87;;;2.90;;
55423;SDS011;41294;42.666;23.350;2022-11-20T14:29:11;3.53;;;2.80;;
55423;SDS011;41294;42.666;23.350;2022-11-20T14:31:50;5.50;;;2.63;;
55423;SDS011;41294;42.666;23.350;2022-11-20T14:34:18;4.23;;;2.73;;
55423;SDS011;41294;42.666;23.350;2022-11-20T14:36:47;5.20;;;2.67;;
55423;SDS011;41294;42.666;23.350;2022-11-20T14:39:24;4.07;;;3.23;;
55423;SDS011;41294;42.666;23.350;2022-11-20T14:41:55;7.13;;;3.00;;
55423;SDS011;41294;42.666;23.350;2022-11-20T14:44:22;5.00;;;3.00;;
55423;SDS011;41294;42.666;23.350;2022-11-20T14:46:52;4.37;;;3.10;;
55423;SDS011;41294;42.666;23.350;2022-11-20T14:49:19;6.47;;;3.27;;
55423;SDS011;41294;42.666;23.350;2022-11-20T14:51:45;6.60;;;3.03;;
55423;SDS011;41294;42.666;23.350;2022-11-20T14:56:39;8.20;;;3.80;;
55423;SDS011;41294;42.666;23.350;2022-11-20T14:59:04;11.80;;;5.47;;
55423;SDS011;41294;42.666;23.350;2022-11-20T15:01:31;6.37;;;3.53;;
55423;SDS011;41294;42.666;23.350;2022-11-20T15:04:15;7.27;;;3.57;;
55423;SDS011;41294;42.666;23.350;2022-11-20T15:06:49;4.83;;;3.27;;
55423;SDS011;41294;42.666;23.350;2022-11-20T15:09:16;7.63;;;3.73;;
55423;SDS011;41294;42.666;23.350;2022-11-20T15:11:50;6.53;;;3.37;;
55423;SDS011;41294;42.666;23.350;2022-11-20T15:14:21;3.53;;;2.80;;
55423;SDS011;41294;42.666;23.350;2022-11-20T15:16:48;5.50;;;2.70;;
55423;SDS011;41294;42.666;23.350;2022-11-20T15:19:18;3.03;;;2.30;;
55423;SDS011;41294;42.666;23.350;2022-11-20T15:21:45;6.33;;;2.60;;
55423;SDS011;41294;42.666;23.350;2022-11-20T15:24:11;5.37;;;2.20;;
55423;SDS011;41294;42.666;23.350;2022-11-20T15:26:37;3.90;;;2.20;;
55423;SDS011;41294;42.666;23.350;2022-11-20T15:29:05;3.13;;;2.13;;
55423;SDS011;41294;42.666;23.350;2022-11-20T15:31:34;3.57;;;2.47;;
55423;SDS011;41294;42.666;23.350;2022-11-20T15:33:59;2.73;;;2.30;;
55423;SDS011;41294;42.666;23.350;2022-11-20T15:36:25;2.33;;;2.13;;
55423;SDS011;41294;42.666;23.350;2022-11-20T15:38:50;3.50;;;2.30;;
55423;SDS011;41294;42.666;23.350;2022-11-20T15:41:16;2.80;;;2.10;;
55423;SDS011;41294;42.666;23.350;2022-11-20T15:43:41;2.23;;;1.90;;
55423;SDS011;41294;42.666;23.350;2022-11-20T15:46:16;4.27;;;2.33;;
55423;SDS011;41294;42.666;23.350;2022-11-20T15:48:52;3.20;;;1.80;;
55423;SDS011;41294;42.666;23.350;2022-11-20T15:51:36;2.07;;;1.60;;
55423;SDS011;41294;42.666;23.350;2022-11-20T15:54:13;4.10;;;2.20;;
55423;SDS011;41294;42.666;23.350;2022-11-20T15:56:42;3.53;;;2.37;;
55423;SDS011;41294;42.666;23.350;2022-11-20T15:59:08;4.40;;;2.60;;
55423;SDS011;41294;42.666;23.350;2022-11-20T16:01:33;7.17;;;2.70;;
55423;SDS011;41294;42.666;23.350;2022-11-20T16:03:59;2.63;;;2.43;;
55423;SDS011;41294;42.666;23.350;2022-11-20T16:06:25;4.57;;;2.53;;
55423;SDS011;41294;42.666;23.350;2022-11-20T16:08:50;3.30;;;2.67;;
55423;SDS011;41294;42.666;23.350;2022-11-20T16:11:16;4.73;;;2.63;;
55423;SDS011;41294;42.666;23.350;2022-11-20T16:13:42;5.27;;;2.20;;
55423;SDS011;41294;42.666;23.350;2022-11-20T16:16:34;2.27;;;1.90;;
55423;SDS011;41294;42.666;23.350;2022-11-20T16:19:01;3.97;;;2.47;;